Time;durP1;ratioP1;P1;durP2;ratioP2;P2;SDS_P1;SDS_P2;PMS_P1;PMS_P2;Temp;Humidity;BMP_temperature;BMP_pressure;BME280_temperature;BME280_humidity;BME280_pressure;Samples;Min_cycle;Max_cycle;Signal;HPM_P1;HPM_P2
2021/01/27 00:02:09;;;;;;;9.53;8.03;;;;;;;;;;4266456;33;20404;-56
2021/01/27 00:04:35;;;;;;;13.07;9.57;;;;;;;;;;4269721;33;20295;-56
2021/01/27 00:07:00;;;;;;;10.67;8.73;;;;;;;;;;4261757;33;20343;-57
2021/01/27 00:09:26;;;;;;;12.83;9.37;;;;;;;;;;4268579;33;20327;-55
2021/01/27 00:11:51;;;;;;;12.93;9.40;;;;;;;;;;4268177;33;20274;-55
2021/01/27 00:14:17;;;;;;;13.60;9.53;;;;;;;;;;4264594;33;20228;-55
2021/01/27 00:16:43;;;;;;;21.47;12.90;;;;;;;;;;4268594;33;20237;-56
2021/01/27 00:19:08;;;;;;;19.00;12.13;;;;;;;;;;4266562;33;21003;-56
2021/01/27 00:21:33;;;;;;;17.67;11.00;;;;;;;;;;4265138;33;20208;-56
2021/01/27 00:23:59;;;;;;;16.10;11.03;;;;;;;;;;4268103;33;20381;-54
2021/01/27 00:26:24;;;;;;;22.13;12.20;;;;;;;;;;4267678;33;20816;-54
2021/01/27 00:28:50;;;;;;;13.57;9.33;;;;;;;;;;4269575;33;20294;-55
2021/01/27 00:31:15;;;;;;;15.60;9.73;;;;;;;;;;4253815;33;20240;-54
2021/01/27 00:33:42;;;;;;;12.67;9.73;;;;;;;;;;4262334;33;20359;-53
2021/01/27 00:36:07;;;;;;;14.80;10.10;;;;;;;;;;4262761;33;20349;-53
2021/01/27 00:38:33;;;;;;;18.37;10.93;;;;;;;;;;4268095;33;20212;-54
2021/01/27 00:40:58;;;;;;;12.30;8.50;;;;;;;;;;4267143;33;20295;-55
2021/01/27 00:43:25;;;;;;;17.40;10.07;;;;;;;;;;4265973;33;20331;-54
2021/01/27 00:45:51;;;;;;;15.50;9.27;;;;;;;;;;4270194;33;20319;-53
2021/01/27 00:48:16;;;;;;;11.37;7.97;;;;;;;;;;4268094;33;21637;-55
2021/01/27 00:50:42;;;;;;;11.10;8.73;;;;;;;;;;4261162;33;20670;-54
2021/01/27 00:53:07;;;;;;;9.90;7.67;;;;;;;;;;4266657;33;20213;-54
2021/01/27 00:55:33;;;;;;;10.03;8.07;;;;;;;;;;4264985;33;20251;-56
2021/01/27 00:57:59;;;;;;;13.07;9.57;;;;;;;;;;4268618;33;20686;-56
2021/01/27 01:00:31;;;;;;;12.73;9.07;;;;;;;;;;4259590;33;20414;-55
2021/01/27 01:02:57;;;;;;;11.90;8.23;;;;;;;;;;4268169;33;20345;-57
2021/01/27 01:05:50;;;;;;;11.80;8.10;;;;;;;;;;4266384;33;20324;-55
2021/01/27 01:08:17;;;;;;;12.47;9.33;;;;;;;;;;4264513;33;20296;-55
2021/01/27 01:10:46;;;;;;;14.23;9.67;;;;;;;;;;4268490;33;20263;-55
2021/01/27 01:13:16;;;;;;;16.27;9.47;;;;;;;;;;4269466;33;20264;-55
2021/01/27 01:15:41;;;;;;;12.47;8.93;;;;;;;;;;4264842;33;20316;-55
2021/01/27 01:18:07;;;;;;;17.63;9.47;;;;;;;;;;4255975;33;20501;-54
2021/01/27 01:20:33;;;;;;;20.37;11.33;;;;;;;;;;4267772;33;20279;-55
2021/01/27 01:23:00;;;;;;;18.47;10.93;;;;;;;;;;4270453;33;20217;-54
2021/01/27 01:25:29;;;;;;;17.20;12.47;;;;;;;;;;4268349;33;20220;-55
2021/01/27 01:27:55;;;;;;;12.03;8.40;;;;;;;;;;4267275;33;20224;-55
2021/01/27 01:30:33;;;;;;;13.90;9.97;;;;;;;;;;4269246;33;20228;-56
2021/01/27 01:33:12;;;;;;;13.73;9.37;;;;;;;;;;4266486;33;20748;-55
2021/01/27 01:35:37;;;;;;;17.67;11.20;;;;;;;;;;4264277;33;20247;-54
2021/01/27 01:38:03;;;;;;;16.40;10.97;;;;;;;;;;4265227;33;20244;-54
2021/01/27 01:40:32;;;;;;;19.17;12.77;;;;;;;;;;4267967;33;20276;-55
2021/01/27 01:43:02;;;;;;;16.47;12.03;;;;;;;;;;4267970;33;20282;-54
2021/01/27 01:45:30;;;;;;;16.03;9.27;;;;;;;;;;4268011;33;20251;-54
2021/01/27 01:48:00;;;;;;;14.73;9.73;;;;;;;;;;4266303;33;20307;-54
2021/01/27 01:50:27;;;;;;;16.83;10.00;;;;;;;;;;4267039;33;20238;-55
2021/01/27 01:52:54;;;;;;;19.47;9.37;;;;;;;;;;4270713;33;20367;-55
2021/01/27 01:55:21;;;;;;;12.10;9.13;;;;;;;;;;4265707;33;20331;-56
2021/01/27 01:57:50;;;;;;;19.93;11.70;;;;;;;;;;4267206;33;20272;-54
2021/01/27 02:00:16;;;;;;;18.93;9.20;;;;;;;;;;4268100;33;20339;-54
2021/01/27 02:02:43;;;;;;;13.67;8.93;;;;;;;;;;4266274;33;20300;-54
2021/01/27 02:05:20;;;;;;;16.10;10.23;;;;;;;;;;4267877;33;20212;-54
2021/01/27 02:07:46;;;;;;;20.77;10.57;;;;;;;;;;4269163;33;20303;-55
2021/01/27 02:10:15;;;;;;;22.57;13.67;;;;;;;;;;4266142;33;20294;-55
2021/01/27 02:13:02;;;;;;;22.80;11.03;;;;;;;;;;4269034;33;20280;-54
2021/01/27 02:15:48;;;;;;;15.17;10.10;;;;;;;;;;4268153;33;20260;-55
2021/01/27 02:18:14;;;;;;;15.90;10.63;;;;;;;;;;4269927;33;20184;-55
2021/01/27 02:20:42;;;;;;;15.80;9.93;;;;;;;;;;4267412;33;20363;-55
2021/01/27 02:23:53;;;;;;;13.60;9.47;;;;;;;;;;4267955;33;20544;-55
2021/01/27 02:26:31;;;;;;;14.67;8.43;;;;;;;;;;4266145;33;20342;-54
2021/01/27 02:28:56;;;;;;;7.17;5.70;;;;;;;;;;4278549;33;20232;-56
2021/01/27 02:31:54;;;;;;;9.50;7.00;;;;;;;;;;4266400;33;20259;-55
2021/01/27 02:34:37;;;;;;;21.47;12.83;;;;;;;;;;4267046;33;20954;-55
2021/01/27 02:37:06;;;;;;;19.77;11.83;;;;;;;;;;4269244;33;20631;-54
2021/01/27 02:39:34;;;;;;;21.50;13.40;;;;;;;;;;4270172;33;20346;-56
2021/01/27 02:42:06;;;;;;;20.60;11.60;;;;;;;;;;4267648;33;20212;-55
2021/01/27 02:44:42;;;;;;;13.03;9.37;;;;;;;;;;4269981;33;20331;-56
2021/01/27 02:47:19;;;;;;;10.90;6.97;;;;;;;;;;4267363;33;20220;-52
2021/01/27 02:50:07;;;;;;;13.00;7.80;;;;;;;;;;4268770;33;20321;-54
2021/01/27 02:52:41;;;;;;;9.20;6.57;;;;;;;;;;4270113;33;20216;-53
2021/01/27 02:55:17;;;;;;;9.33;6.60;;;;;;;;;;4255459;33;20232;-53
2021/01/27 02:57:54;;;;;;;9.70;6.43;;;;;;;;;;4267236;33;21129;-54
2021/01/27 03:00:29;;;;;;;13.70;9.77;;;;;;;;;;4262318;33;20249;-53
2021/01/27 03:03:00;;;;;;;11.60;7.60;;;;;;;;;;4267974;33;20235;-53
2021/01/27 03:05:33;;;;;;;6.77;4.53;;;;;;;;;;4267210;33;20213;-55
2021/01/27 03:08:07;;;;;;;6.37;4.57;;;;;;;;;;4273990;33;20262;-54
2021/01/27 03:10:44;;;;;;;7.97;5.43;;;;;;;;;;4266810;33;20228;-55
2021/01/27 03:13:10;;;;;;;7.73;4.63;;;;;;;;;;4266478;33;20691;-55
2021/01/27 03:15:37;;;;;;;10.53;6.57;;;;;;;;;;4278198;33;20358;-54
2021/01/27 03:18:05;;;;;;;6.30;4.50;;;;;;;;;;4266037;33;20341;-55
2021/01/27 03:20:33;;;;;;;5.53;4.33;;;;;;;;;;4265900;33;20422;-55
2021/01/27 03:23:07;;;;;;;10.33;5.90;;;;;;;;;;4266964;33;20270;-54
2021/01/27 03:25:35;;;;;;;4.07;3.67;;;;;;;;;;4267630;33;20961;-55
2021/01/27 03:28:10;;;;;;;6.10;4.13;;;;;;;;;;4256362;33;20224;-55
2021/01/27 03:30:37;;;;;;;6.27;4.50;;;;;;;;;;4268581;33;20247;-56
2021/01/27 03:33:11;;;;;;;7.60;3.90;;;;;;;;;;4269378;33;20238;-55
2021/01/27 03:35:57;;;;;;;5.07;4.47;;;;;;;;;;4271230;33;20213;-55
2021/01/27 03:38:30;;;;;;;7.23;5.33;;;;;;;;;;4269463;33;20201;-56
2021/01/27 03:41:11;;;;;;;5.67;4.27;;;;;;;;;;4269723;33;20209;-56
2021/01/27 03:43:45;;;;;;;10.43;5.97;;;;;;;;;;4273104;33;20354;-54
2021/01/27 03:46:26;;;;;;;7.63;5.10;;;;;;;;;;4272010;33;20289;-54
2021/01/27 03:48:58;;;;;;;5.50;4.13;;;;;;;;;;4269995;33;20314;-54
2021/01/27 03:51:26;;;;;;;6.30;4.93;;;;;;;;;;4270039;33;20208;-54
2021/01/27 03:53:53;;;;;;;9.70;5.30;;;;;;;;;;4270753;33;20598;-55
2021/01/27 03:56:43;;;;;;;7.43;4.97;;;;;;;;;;4271699;33;20315;-55
2021/01/27 03:59:12;;;;;;;6.73;5.23;;;;;;;;;;4264880;33;20706;-56
2021/01/27 04:01:55;;;;;;;6.67;4.93;;;;;;;;;;4269114;33;20374;-55
2021/01/27 04:04:22;;;;;;;7.60;4.80;;;;;;;;;;4280943;33;20390;-54
2021/01/27 04:06:47;;;;;;;16.93;8.13;;;;;;;;;;4269510;33;20225;-54
2021/01/27 04:09:13;;;;;;;12.70;6.97;;;;;;;;;;4280273;33;20560;-54
2021/01/27 04:11:39;;;;;;;7.53;5.43;;;;;;;;;;4268294;33;20504;-54
2021/01/27 04:14:06;;;;;;;8.53;5.37;;;;;;;;;;4269884;33;20297;-55
2021/01/27 04:16:32;;;;;;;6.77;5.23;;;;;;;;;;4268631;33;20570;-54
2021/01/27 04:18:58;;;;;;;7.70;4.50;;;;;;;;;;4269633;33;20331;-54
2021/01/27 04:21:24;;;;;;;9.53;5.70;;;;;;;;;;4268548;33;20347;-53
2021/01/27 04:23:50;;;;;;;8.00;6.07;;;;;;;;;;4268165;33;20388;-53
2021/01/27 04:26:16;;;;;;;7.13;4.67;;;;;;;;;;4267879;33;20229;-53
2021/01/27 04:28:41;;;;;;;7.17;4.97;;;;;;;;;;4267589;33;20296;-53
2021/01/27 04:31:07;;;;;;;8.30;5.07;;;;;;;;;;4269383;33;20513;-54
2021/01/27 04:33:32;;;;;;;7.30;5.07;;;;;;;;;;4267127;33;20251;-54
2021/01/27 04:35:58;;;;;;;7.90;5.50;;;;;;;;;;4269058;33;20367;-54
2021/01/27 04:38:23;;;;;;;7.07;5.77;;;;;;;;;;4268340;33;20239;-53
2021/01/27 04:40:54;;;;;;;7.17;5.30;;;;;;;;;;4268630;33;20279;-53
2021/01/27 04:43:41;;;;;;;5.70;4.53;;;;;;;;;;4269540;33;20271;-55
2021/01/27 04:46:27;;;;;;;7.40;5.40;;;;;;;;;;4271239;33;20482;-54
2021/01/27 04:49:17;;;;;;;5.80;4.90;;;;;;;;;;4267354;33;20642;-55
2021/01/27 04:51:57;;;;;;;7.80;6.33;;;;;;;;;;4266963;33;20247;-55
2021/01/27 04:54:47;;;;;;;12.70;7.10;;;;;;;;;;4270236;33;20208;-53
2021/01/27 04:57:12;;;;;;;8.57;5.97;;;;;;;;;;4271010;33;20225;-55
2021/01/27 04:59:41;;;;;;;8.47;5.03;;;;;;;;;;4270009;33;20605;-53
2021/01/27 05:02:17;;;;;;;13.60;9.70;;;;;;;;;;4266315;33;20274;-54
2021/01/27 05:04:54;;;;;;;8.07;5.97;;;;;;;;;;4268324;33;20217;-55
2021/01/27 05:07:47;;;;;;;7.83;5.93;;;;;;;;;;4267582;33;20221;-56
2021/01/27 05:10:18;;;;;;;11.60;6.83;;;;;;;;;;4258663;33;20217;-54
2021/01/27 05:13:01;;;;;;;11.13;7.97;;;;;;;;;;4268115;33;20606;-57
2021/01/27 05:15:27;;;;;;;8.77;6.37;;;;;;;;;;4268819;33;20350;-58
2021/01/27 05:17:53;;;;;;;7.87;5.40;;;;;;;;;;4268344;33;20379;-58
2021/01/27 05:20:21;;;;;;;9.57;5.80;;;;;;;;;;4265666;33;20623;-57
2021/01/27 05:22:46;;;;;;;9.67;7.77;;;;;;;;;;4266289;33;20228;-57
2021/01/27 05:25:17;;;;;;;36.93;18.70;;;;;;;;;;4266019;33;20708;-57
2021/01/27 05:27:44;;;;;;;20.30;13.37;;;;;;;;;;4268061;33;20327;-55
2021/01/27 05:30:30;;;;;;;12.83;8.00;;;;;;;;;;4278299;33;20659;-57
2021/01/27 05:32:56;;;;;;;19.77;13.40;;;;;;;;;;4250977;33;20276;-54
2021/01/27 05:35:27;;;;;;;22.30;15.57;;;;;;;;;;4268126;33;20362;-54
2021/01/27 05:37:53;;;;;;;11.07;8.30;;;;;;;;;;4268086;33;20213;-57
2021/01/27 05:40:26;;;;;;;13.20;9.20;;;;;;;;;;4268018;33;20243;-56
2021/01/27 05:42:52;;;;;;;17.67;11.27;;;;;;;;;;4265711;33;20896;-57
2021/01/27 05:45:34;;;;;;;11.00;8.30;;;;;;;;;;4267850;33;20323;-58
2021/01/27 05:48:24;;;;;;;14.43;9.17;;;;;;;;;;4267697;33;20647;-58
2021/01/27 05:51:06;;;;;;;29.33;15.60;;;;;;;;;;4267794;33;20247;-54
2021/01/27 05:53:32;;;;;;;25.40;14.27;;;;;;;;;;4261903;33;20630;-54
2021/01/27 05:56:18;;;;;;;16.07;9.70;;;;;;;;;;4267964;33;20335;-56
2021/01/27 05:58:49;;;;;;;12.33;8.27;;;;;;;;;;4279278;33;20319;-54
2021/01/27 06:01:25;;;;;;;15.50;9.53;;;;;;;;;;4265152;33;20662;-54
2021/01/27 06:04:00;;;;;;;15.37;8.83;;;;;;;;;;4277580;33;20363;-54
2021/01/27 06:06:31;;;;;;;12.17;9.03;;;;;;;;;;4268281;33;20715;-55
2021/01/27 06:08:59;;;;;;;13.43;9.20;;;;;;;;;;4269033;33;20682;-55
2021/01/27 06:11:25;;;;;;;11.13;8.07;;;;;;;;;;4267178;33;20252;-54
2021/01/27 06:14:15;;;;;;;11.17;8.17;;;;;;;;;;4268282;33;20667;-54
2021/01/27 06:16:44;;;;;;;18.13;10.77;;;;;;;;;;4266144;33;20337;-56
2021/01/27 06:19:11;;;;;;;24.53;13.20;;;;;;;;;;4267515;33;20726;-57
2021/01/27 06:21:46;;;;;;;25.17;13.10;;;;;;;;;;4265280;33;20387;-58
2021/01/27 06:24:32;;;;;;;31.73;15.57;;;;;;;;;;4266185;33;20236;-59
2021/01/27 06:27:22;;;;;;;23.30;13.80;;;;;;;;;;4264113;33;20410;-58
2021/01/27 06:30:16;;;;;;;21.53;13.50;;;;;;;;;;4269188;33;20240;-56
2021/01/27 06:33:07;;;;;;;24.63;14.90;;;;;;;;;;4265990;33;20403;-57
2021/01/27 06:35:52;;;;;;;23.50;13.87;;;;;;;;;;4267613;33;20579;-56
2021/01/27 06:38:20;;;;;;;21.70;13.47;;;;;;;;;;4265966;33;20287;-54
2021/01/27 06:41:23;;;;;;;20.10;12.43;;;;;;;;;;4267277;33;20382;-55
2021/01/27 06:44:31;;;;;;;15.93;10.53;;;;;;;;;;4266673;33;20302;-55
2021/01/27 06:47:34;;;;;;;33.77;15.93;;;;;;;;;;4251342;33;20263;-55
2021/01/27 06:50:12;;;;;;;21.77;12.80;;;;;;;;;;4266610;33;20231;-54
2021/01/27 06:52:43;;;;;;;17.60;11.97;;;;;;;;;;4265714;33;20303;-56
2021/01/27 06:55:08;;;;;;;15.40;9.83;;;;;;;;;;4266986;33;20283;-55
2021/01/27 06:57:55;;;;;;;16.37;10.80;;;;;;;;;;4265003;33;20367;-55
2021/01/27 07:00:21;;;;;;;22.10;13.50;;;;;;;;;;4267270;33;20390;-54
2021/01/27 07:03:01;;;;;;;20.77;12.77;;;;;;;;;;4264565;33;20233;-55
2021/01/27 07:06:04;;;;;;;15.53;10.23;;;;;;;;;;4265134;33;20228;-56
2021/01/27 07:08:41;;;;;;;11.60;8.53;;;;;;;;;;4264382;33;20299;-55
2021/01/27 07:11:18;;;;;;;14.33;10.47;;;;;;;;;;4265122;33;20321;-54
2021/01/27 07:13:49;;;;;;;25.07;16.27;;;;;;;;;;4265376;33;20287;-54
2021/01/27 07:16:39;;;;;;;16.63;11.40;;;;;;;;;;4267952;33;20374;-55
2021/01/27 07:19:05;;;;;;;20.77;12.30;;;;;;;;;;4268840;33;20750;-55
2021/01/27 07:21:30;;;;;;;18.20;11.93;;;;;;;;;;4264485;33;20233;-55
2021/01/27 07:24:14;;;;;;;21.07;14.53;;;;;;;;;;4267098;33;20378;-54
2021/01/27 07:26:58;;;;;;;21.10;13.33;;;;;;;;;;4265388;33;20239;-53
2021/01/27 07:29:34;;;;;;;21.57;13.97;;;;;;;;;;4265854;33;20247;-55
2021/01/27 07:32:14;;;;;;;15.40;10.73;;;;;;;;;;4267421;33;20216;-56
2021/01/27 07:34:49;;;;;;;15.13;10.77;;;;;;;;;;4269056;33;20224;-54
2021/01/27 07:37:33;;;;;;;12.03;9.30;;;;;;;;;;4260656;33;20224;-54
2021/01/27 07:40:20;;;;;;;12.30;7.80;;;;;;;;;;4265894;33;20754;-57
2021/01/27 07:42:55;;;;;;;12.37;8.57;;;;;;;;;;4265505;33;20368;-55
2021/01/27 07:45:24;;;;;;;18.13;12.13;;;;;;;;;;4267558;33;20299;-55
2021/01/27 07:48:09;;;;;;;16.53;10.10;;;;;;;;;;4264418;33;20262;-54
2021/01/27 07:50:35;;;;;;;22.40;13.23;;;;;;;;;;4268796;33;20335;-54
2021/01/27 07:53:09;;;;;;;17.67;10.53;;;;;;;;;;4268798;33;20274;-54
2021/01/27 07:56:02;;;;;;;19.90;12.07;;;;;;;;;;4267856;33;20604;-53
2021/01/27 07:58:57;;;;;;;33.97;20.87;;;;;;;;;;4272430;33;20260;-55
2021/01/27 08:01:36;;;;;;;208.33;81.97;;;;;;;;;;4266073;33;20359;-55
2021/01/27 08:04:46;;;;;;;40.97;24.57;;;;;;;;;;4264532;33;20473;-54
2021/01/27 08:07:33;;;;;;;45.70;27.13;;;;;;;;;;4257203;33;20365;-54
2021/01/27 08:10:15;;;;;;;23.17;13.30;;;;;;;;;;4268065;33;20346;-53
2021/01/27 08:12:54;;;;;;;15.03;10.70;;;;;;;;;;4268534;33;20384;-54
2021/01/27 08:15:26;;;;;;;21.67;14.03;;;;;;;;;;4277627;33;20334;-54
2021/01/27 08:17:54;;;;;;;19.10;12.67;;;;;;;;;;4269754;33;20619;-54
2021/01/27 08:20:26;;;;;;;22.57;12.17;;;;;;;;;;4273002;33;20299;-54
2021/01/27 08:22:55;;;;;;;30.67;18.80;;;;;;;;;;4269637;33;20343;-53
2021/01/27 08:25:57;;;;;;;39.73;21.53;;;;;;;;;;4273492;33;20322;-53
2021/01/27 08:28:45;;;;;;;21.27;11.70;;;;;;;;;;4269402;33;20394;-54
2021/01/27 08:31:12;;;;;;;12.33;9.00;;;;;;;;;;4270639;33;20212;-55
2021/01/27 08:33:46;;;;;;;17.17;10.70;;;;;;;;;;4271266;33;20543;-55
2021/01/27 08:36:30;;;;;;;20.87;12.03;;;;;;;;;;4270874;33;20370;-55
2021/01/27 08:38:56;;;;;;;17.53;10.53;;;;;;;;;;4269664;33;20239;-55
2021/01/27 08:41:43;;;;;;;21.00;13.80;;;;;;;;;;4269644;33;20374;-54
2021/01/27 08:44:20;;;;;;;18.67;12.40;;;;;;;;;;4268173;33;20340;-56
2021/01/27 08:47:08;;;;;;;11.17;7.97;;;;;;;;;;4269142;33;20550;-53
2021/01/27 08:49:36;;;;;;;18.97;10.90;;;;;;;;;;4265854;33;20228;-55
2021/01/27 08:52:22;;;;;;;8.73;4.77;;;;;;;;;;4271382;33;20299;-54
2021/01/27 08:54:50;;;;;;;16.70;9.37;;;;;;;;;;4267732;33;20308;-54
2021/01/27 08:57:29;;;;;;;27.47;16.33;;;;;;;;;;4267082;33;20310;-54
2021/01/27 09:00:26;;;;;;;17.80;11.20;;;;;;;;;;4268224;33;20282;-54
2021/01/27 09:02:59;;;;;;;9.80;6.20;;;;;;;;;;4271083;33;20523;-56
2021/01/27 09:05:24;;;;;;;18.37;13.00;;;;;;;;;;4270130;33;20373;-56
2021/01/27 09:07:59;;;;;;;13.83;9.50;;;;;;;;;;4268267;33;20719;-55
2021/01/27 09:10:38;;;;;;;14.37;9.80;;;;;;;;;;4269559;33;20614;-55
2021/01/27 09:13:26;;;;;;;18.40;12.33;;;;;;;;;;4264939;33;20290;-55
2021/01/27 09:15:57;;;;;;;18.93;11.00;;;;;;;;;;4269359;33;20641;-54
2021/01/27 09:18:23;;;;;;;31.20;17.87;;;;;;;;;;4268104;33;20242;-55
2021/01/27 09:20:49;;;;;;;18.80;12.17;;;;;;;;;;4268518;33;20283;-54
2021/01/27 09:23:18;;;;;;;18.40;10.37;;;;;;;;;;4266960;33;20342;-53
2021/01/27 09:25:47;;;;;;;25.17;15.10;;;;;;;;;;4268413;33;20213;-57
2021/01/27 09:28:19;;;;;;;30.90;19.13;;;;;;;;;;4267974;33;20212;-56
2021/01/27 09:30:44;;;;;;;19.67;12.57;;;;;;;;;;4267955;33;20253;-55
2021/01/27 09:33:35;;;;;;;19.43;11.80;;;;;;;;;;4267561;33;20733;-56
2021/01/27 09:36:18;;;;;;;16.40;10.23;;;;;;;;;;4268133;33;20232;-56
2021/01/27 09:38:44;;;;;;;30.40;16.90;;;;;;;;;;4265752;33;20488;-55
2021/01/27 09:41:15;;;;;;;13.03;8.43;;;;;;;;;;4267429;33;20299;-56
2021/01/27 09:43:46;;;;;;;16.73;11.53;;;;;;;;;;4269909;33;20418;-52
2021/01/27 09:46:34;;;;;;;40.13;22.67;;;;;;;;;;4268764;33;20280;-52
2021/01/27 09:49:09;;;;;;;14.33;9.13;;;;;;;;;;4268491;33;20212;-56
2021/01/27 09:51:37;;;;;;;15.07;9.43;;;;;;;;;;4268849;33;20315;-58
2021/01/27 09:54:03;;;;;;;16.23;9.53;;;;;;;;;;4268808;33;20311;-57
2021/01/27 09:56:30;;;;;;;14.57;8.73;;;;;;;;;;4268678;33;20640;-54
2021/01/27 09:58:58;;;;;;;13.90;8.47;;;;;;;;;;4264647;33;20346;-54
2021/01/27 10:01:32;;;;;;;13.70;9.40;;;;;;;;;;4266552;33;20572;-54
2021/01/27 10:04:11;;;;;;;17.83;9.93;;;;;;;;;;4266630;33;20303;-54
2021/01/27 10:07:09;;;;;;;19.13;12.00;;;;;;;;;;4273668;33;20307;-55
2021/01/27 10:09:45;;;;;;;23.50;16.10;;;;;;;;;;4252920;33;20307;-54
2021/01/27 10:12:26;;;;;;;18.17;11.77;;;;;;;;;;4263723;33;20681;-52
2021/01/27 10:15:11;;;;;;;21.83;15.20;;;;;;;;;;4268393;33;20236;-53
2021/01/27 10:17:36;;;;;;;35.63;24.00;;;;;;;;;;4274231;33;20254;-53
2021/01/27 10:20:07;;;;;;;20.10;12.10;;;;;;;;;;4270555;33;20291;-52
2021/01/27 10:22:37;;;;;;;31.37;16.47;;;;;;;;;;4273807;33;20681;-52
2021/01/27 10:25:24;;;;;;;63.23;27.10;;;;;;;;;;4270363;33;20321;-52
2021/01/27 10:28:03;;;;;;;106.50;43.77;;;;;;;;;;4269235;33;20284;-52
2021/01/27 10:30:30;;;;;;;51.33;29.50;;;;;;;;;;4270777;33;20277;-52
2021/01/27 10:32:56;;;;;;;39.80;26.23;;;;;;;;;;4270030;33;20259;-54
2021/01/27 10:35:22;;;;;;;24.60;16.27;;;;;;;;;;4271747;33;20315;-54
2021/01/27 10:37:48;;;;;;;31.93;22.47;;;;;;;;;;4267889;33;20380;-53
2021/01/27 10:40:29;;;;;;;23.47;14.20;;;;;;;;;;4267135;33;20410;-54
2021/01/27 10:43:24;;;;;;;20.83;11.50;;;;;;;;;;4266369;33;20720;-53
2021/01/27 10:45:49;;;;;;;18.17;11.77;;;;;;;;;;4270443;33;20272;-55
2021/01/27 10:48:21;;;;;;;27.63;17.27;;;;;;;;;;4267499;33;20220;-52
2021/01/27 10:50:50;;;;;;;14.00;8.77;;;;;;;;;;4264765;33;20209;-52
2021/01/27 10:53:18;;;;;;;8.47;5.93;;;;;;;;;;4259830;33;20569;-53
2021/01/27 10:55:52;;;;;;;16.70;11.73;;;;;;;;;;4266314;33;20213;-52
2021/01/27 10:58:18;;;;;;;18.13;10.57;;;;;;;;;;4266950;33;20286;-53
2021/01/27 11:00:45;;;;;;;15.33;10.50;;;;;;;;;;4267029;33;20239;-52
2021/01/27 11:03:11;;;;;;;12.10;8.67;;;;;;;;;;4266383;33;20296;-51
2021/01/27 11:05:37;;;;;;;9.77;7.13;;;;;;;;;;4263115;33;20694;-52
2021/01/27 11:08:04;;;;;;;8.60;5.50;;;;;;;;;;4265112;33;20228;-51
2021/01/27 11:10:31;;;;;;;9.00;6.13;;;;;;;;;;4265645;33;20228;-53
2021/01/27 11:12:56;;;;;;;7.03;5.80;;;;;;;;;;4266307;33;20299;-54
2021/01/27 11:15:23;;;;;;;21.27;12.40;;;;;;;;;;4266176;33;20752;-56
2021/01/27 11:17:49;;;;;;;13.30;8.10;;;;;;;;;;4266581;33;20271;-54
2021/01/27 11:20:19;;;;;;;12.00;8.67;;;;;;;;;;4266200;33;20263;-53
2021/01/27 11:22:46;;;;;;;13.00;8.00;;;;;;;;;;4272255;33;20228;-53
2021/01/27 11:25:15;;;;;;;8.10;6.37;;;;;;;;;;4266025;33;20328;-54
2021/01/27 11:27:40;;;;;;;8.43;7.10;;;;;;;;;;4266089;33;20243;-54
2021/01/27 11:30:06;;;;;;;9.67;6.40;;;;;;;;;;4260468;33;20196;-54
2021/01/27 11:32:32;;;;;;;10.17;6.63;;;;;;;;;;4269223;33;20369;-53
2021/01/27 11:34:57;;;;;;;8.73;6.77;;;;;;;;;;4265708;33;20217;-53
2021/01/27 11:37:23;;;;;;;11.17;7.97;;;;;;;;;;4267140;33;20233;-54
2021/01/27 11:39:48;;;;;;;14.63;9.40;;;;;;;;;;4262599;33;20216;-53
2021/01/27 11:42:14;;;;;;;7.20;5.47;;;;;;;;;;4264649;33;20308;-53
2021/01/27 11:44:40;;;;;;;9.07;7.20;;;;;;;;;;4264788;33;20212;-51
2021/01/27 11:47:05;;;;;;;9.27;7.93;;;;;;;;;;4259087;33;20345;-53
2021/01/27 11:49:31;;;;;;;9.60;7.37;;;;;;;;;;4248122;33;20725;-52
2021/01/27 11:51:56;;;;;;;12.73;9.13;;;;;;;;;;4256147;33;20803;-51
2021/01/27 11:54:23;;;;;;;8.27;5.57;;;;;;;;;;4256761;33;20750;-52
2021/01/27 11:56:48;;;;;;;8.93;6.60;;;;;;;;;;4269115;33;20275;-52
2021/01/27 11:59:14;;;;;;;14.00;9.47;;;;;;;;;;4270978;33;20276;-52
2021/01/27 12:01:40;;;;;;;6.80;6.10;;;;;;;;;;4267951;33;20228;-53
2021/01/27 12:04:05;;;;;;;15.50;10.43;;;;;;;;;;4269501;33;20335;-52
2021/01/27 12:06:31;;;;;;;10.87;7.17;;;;;;;;;;4269514;33;20224;-54
2021/01/27 12:08:57;;;;;;;20.33;10.43;;;;;;;;;;4268987;33;20251;-53
2021/01/27 12:11:22;;;;;;;18.20;11.40;;;;;;;;;;4268472;33;20307;-52
2021/01/27 12:13:48;;;;;;;19.90;12.63;;;;;;;;;;4267903;33;20257;-53
2021/01/27 12:16:14;;;;;;;18.67;11.40;;;;;;;;;;4269250;33;20701;-52
2021/01/27 12:18:41;;;;;;;18.77;12.43;;;;;;;;;;4279572;33;20250;-53
2021/01/27 12:21:08;;;;;;;11.53;8.67;;;;;;;;;;4274525;33;20307;-53
2021/01/27 12:23:33;;;;;;;14.43;8.90;;;;;;;;;;4264076;33;20213;-53
2021/01/27 12:25:59;;;;;;;11.73;8.47;;;;;;;;;;4254671;33;20753;-52
2021/01/27 12:28:24;;;;;;;60.83;23.20;;;;;;;;;;4269234;33;20204;-52
2021/01/27 12:30:50;;;;;;;19.87;12.80;;;;;;;;;;4270555;33;20224;-51
2021/01/27 12:33:15;;;;;;;12.97;10.47;;;;;;;;;;4276923;33;20577;-52
2021/01/27 12:35:41;;;;;;;10.93;7.60;;;;;;;;;;4273660;33;20425;-52
2021/01/27 12:38:07;;;;;;;16.23;10.00;;;;;;;;;;4278804;33;20239;-55
2021/01/27 12:40:32;;;;;;;9.70;7.83;;;;;;;;;;4270428;33;20311;-53
2021/01/27 12:42:58;;;;;;;14.60;9.00;;;;;;;;;;4272248;33;20247;-54
2021/01/27 12:45:25;;;;;;;7.20;5.97;;;;;;;;;;4272292;33;20317;-54
2021/01/27 12:47:52;;;;;;;8.70;5.90;;;;;;;;;;4270659;33;20254;-54
2021/01/27 12:50:17;;;;;;;6.63;5.40;;;;;;;;;;4270748;33;20433;-54
2021/01/27 12:52:43;;;;;;;15.87;9.63;;;;;;;;;;4275481;33;20777;-54
2021/01/27 12:55:11;;;;;;;21.97;12.43;;;;;;;;;;4272882;33;20212;-54
2021/01/27 12:57:42;;;;;;;15.90;10.43;;;;;;;;;;4269094;33;20402;-54
2021/01/27 13:00:20;;;;;;;16.90;10.00;;;;;;;;;;4273329;33;20726;-54
2021/01/27 13:02:48;;;;;;;16.13;9.87;;;;;;;;;;4271295;33;20734;-52
2021/01/27 13:05:15;;;;;;;9.93;7.60;;;;;;;;;;4268874;33;20528;-52
2021/01/27 13:07:40;;;;;;;26.00;12.83;;;;;;;;;;4279268;33;20809;-52
2021/01/27 13:10:08;;;;;;;18.03;10.17;;;;;;;;;;4269010;33;20232;-54
2021/01/27 13:12:37;;;;;;;17.97;10.87;;;;;;;;;;4268090;33;20242;-53
2021/01/27 13:15:06;;;;;;;13.37;10.10;;;;;;;;;;4269057;33;20276;-55
2021/01/27 13:17:31;;;;;;;11.43;8.03;;;;;;;;;;4278316;33;20627;-53
2021/01/27 13:19:57;;;;;;;16.57;10.00;;;;;;;;;;4269542;33;20323;-53
2021/01/27 13:22:22;;;;;;;13.13;9.50;;;;;;;;;;4256464;33;20705;-53
2021/01/27 13:24:47;;;;;;;13.47;8.43;;;;;;;;;;4261788;33;20272;-54
2021/01/27 13:27:13;;;;;;;13.40;8.03;;;;;;;;;;4267979;33;20267;-54
2021/01/27 13:29:39;;;;;;;12.83;8.97;;;;;;;;;;4274528;33;20220;-54
2021/01/27 13:32:04;;;;;;;12.30;8.33;;;;;;;;;;4269100;33;20548;-54
2021/01/27 13:34:30;;;;;;;14.60;8.60;;;;;;;;;;4278533;33;20291;-55
2021/01/27 13:36:55;;;;;;;12.93;9.73;;;;;;;;;;4270624;33;20216;-54
2021/01/27 13:39:21;;;;;;;11.20;8.33;;;;;;;;;;4271188;33;20245;-53
2021/01/27 13:41:46;;;;;;;16.07;10.37;;;;;;;;;;4267734;33;20224;-54
2021/01/27 13:44:12;;;;;;;13.93;10.70;;;;;;;;;;4271348;33;20337;-54
2021/01/27 13:46:37;;;;;;;16.13;10.80;;;;;;;;;;4275093;33;20286;-52
2021/01/27 13:49:03;;;;;;;14.80;10.30;;;;;;;;;;4275598;33;20244;-51
2021/01/27 13:51:28;;;;;;;20.87;11.87;;;;;;;;;;4274212;33;20288;-51
2021/01/27 13:53:54;;;;;;;13.07;9.40;;;;;;;;;;4268503;33;20804;-52
2021/01/27 13:56:19;;;;;;;13.00;7.87;;;;;;;;;;4278775;33;20528;-52
2021/01/27 13:58:45;;;;;;;5.93;5.33;;;;;;;;;;4268694;33;20384;-51
2021/01/27 14:01:10;;;;;;;12.67;8.50;;;;;;;;;;4268765;33;20828;-52
2021/01/27 14:03:36;;;;;;;19.23;13.33;;;;;;;;;;4268608;33;20280;-52
2021/01/27 14:06:03;;;;;;;84.47;30.80;;;;;;;;;;4255857;33;20280;-52
2021/01/27 14:08:29;;;;;;;61.70;24.33;;;;;;;;;;4268095;33;20224;-52
2021/01/27 14:10:55;;;;;;;24.53;13.30;;;;;;;;;;4266856;33;20310;-52
2021/01/27 14:13:21;;;;;;;7.73;6.83;;;;;;;;;;4268342;33;20330;-52
2021/01/27 14:15:47;;;;;;;12.17;8.30;;;;;;;;;;4265485;33;20450;-52
2021/01/27 14:18:13;;;;;;;12.87;8.40;;;;;;;;;;4267983;33;20224;-53
2021/01/27 14:20:38;;;;;;;12.73;9.23;;;;;;;;;;4266180;33;20380;-53
2021/01/27 14:23:04;;;;;;;15.83;10.33;;;;;;;;;;4269754;33;20650;-52
2021/01/27 14:25:29;;;;;;;17.83;11.80;;;;;;;;;;4272337;33;20280;-53
2021/01/27 14:27:56;;;;;;;22.30;11.10;;;;;;;;;;4273125;33;20216;-52
2021/01/27 14:30:28;;;;;;;29.37;15.10;;;;;;;;;;4259730;33;20298;-55
2021/01/27 14:32:53;;;;;;;30.17;16.67;;;;;;;;;;4262654;33;20671;-54
2021/01/27 14:35:22;;;;;;;34.00;19.03;;;;;;;;;;4263293;33;20279;-51
2021/01/27 14:37:48;;;;;;;22.67;15.30;;;;;;;;;;4269972;33;20435;-54
2021/01/27 14:40:13;;;;;;;62.57;31.67;;;;;;;;;;4268527;33;20212;-55
2021/01/27 14:42:39;;;;;;;21.97;14.47;;;;;;;;;;4270964;33;20366;-55
2021/01/27 14:45:06;;;;;;;30.23;19.10;;;;;;;;;;4269078;33;20305;-54
2021/01/27 14:47:31;;;;;;;20.90;11.40;;;;;;;;;;4269769;33;20379;-54
2021/01/27 14:49:57;;;;;;;21.73;13.87;;;;;;;;;;4273030;33;20304;-57
2021/01/27 14:52:23;;;;;;;25.60;15.73;;;;;;;;;;4267929;33;20254;-54
2021/01/27 14:54:49;;;;;;;52.37;26.90;;;;;;;;;;4266866;33;20656;-55